sensor_id;sensor_type;location;lat;lon;timestamp;temperature;humidity
6672;DHT22;3372;48.690;12.362;2023-05-10T00:00:13;16.50;21.40
6672;DHT22;3372;48.690;12.362;2023-05-10T00:02:39;16.40;21.50
6672;DHT22;3372;48.690;12.362;2023-05-10T00:05:06;16.40;22.10
6672;DHT22;3372;48.690;12.362;2023-05-10T00:07:32;16.40;22.20
6672;DHT22;3372;48.690;12.362;2023-05-10T00:09:58;16.40;21.60
6672;DHT22;3372;48.690;12.362;2023-05-10T00:12:23;16.30;22.20
6672;DHT22;3372;48.690;12.362;2023-05-10T00:14:49;16.30;22.40
6672;DHT22;3372;48.690;12.362;2023-05-10T00:17:16;16.30;22.50
6672;DHT22;3372;48.690;12.362;2023-05-10T00:19:41;16.30;22.70
6672;DHT22;3372;48.690;12.362;2023-05-10T00:22:07;16.30;22.70
6672;DHT22;3372;48.690;12.362;2023-05-10T00:24:32;16.30;22.20
6672;DHT22;3372;48.690;12.362;2023-05-10T00:26:58;16.40;22.80
6672;DHT22;3372;48.690;12.362;2023-05-10T00:29:23;16.30;22.80
6672;DHT22;3372;48.690;12.362;2023-05-10T00:31:49;16.30;22.80
6672;DHT22;3372;48.690;12.362;2023-05-10T00:34:15;16.20;22.70
6672;DHT22;3372;48.690;12.362;2023-05-10T00:36:41;16.20;22.70
6672;DHT22;3372;48.690;12.362;2023-05-10T00:39:06;16.20;22.70
6672;DHT22;3372;48.690;12.362;2023-05-10T00:41:33;16.30;22.70
6672;DHT22;3372;48.690;12.362;2023-05-10T00:43:58;16.20;23.00
6672;DHT22;3372;48.690;12.362;2023-05-10T00:46:25;16.20;22.90
6672;DHT22;3372;48.690;12.362;2023-05-10T00:48:51;16.20;22.80
6672;DHT22;3372;48.690;12.362;2023-05-10T00:51:17;16.20;22.70
6672;DHT22;3372;48.690;12.362;2023-05-10T00:53:44;16.10;23.10
6672;DHT22;3372;48.690;12.362;2023-05-10T00:56:11;16.10;23.40
6672;DHT22;3372;48.690;12.362;2023-05-10T00:58:38;16.10;23.50
6672;DHT22;3372;48.690;12.362;2023-05-10T01:01:04;16.10;23.20
6672;DHT22;3372;48.690;12.362;2023-05-10T01:03:32;16.10;23.00
6672;DHT22;3372;48.690;12.362;2023-05-10T01:05:58;16.10;22.90
6672;DHT22;3372;48.690;12.362;2023-05-10T01:08:24;16.10;23.50
6672;DHT22;3372;48.690;12.362;2023-05-10T01:10:50;16.10;23.00
6672;DHT22;3372;48.690;12.362;2023-05-10T01:13:29;16.10;23.40
6672;DHT22;3372;48.690;12.362;2023-05-10T01:15:56;16.10;24.10
6672;DHT22;3372;48.690;12.362;2023-05-10T01:18:22;16.10;22.60
6672;DHT22;3372;48.690;12.362;2023-05-10T01:20:51;16.20;23.20
6672;DHT22;3372;48.690;12.362;2023-05-10T01:24:08;16.20;23.20
6672;DHT22;3372;48.690;12.362;2023-05-10T01:34:53;16.10;23.20
6672;DHT22;3372;48.690;12.362;2023-05-10T01:37:29;16.10;23.10
6672;DHT22;3372;48.690;12.362;2023-05-10T01:40:09;16.20;23.20
6672;DHT22;3372;48.690;12.362;2023-05-10T01:42:59;16.10;23.00
6672;DHT22;3372;48.690;12.362;2023-05-10T01:46:01;16.20;23.50
6672;DHT22;3372;48.690;12.362;2023-05-10T01:48:26;16.10;23.90
6672;DHT22;3372;48.690;12.362;2023-05-10T01:50:53;16.10;23.10
6672;DHT22;3372;48.690;12.362;2023-05-10T01:53:21;16.10;24.10
6672;DHT22;3372;48.690;12.362;2023-05-10T01:55:51;16.10;23.30
6672;DHT22;3372;48.690;12.362;2023-05-10T01:58:21;16.20;23.30
6672;DHT22;3372;48.690;12.362;2023-05-10T02:00:49;16.20;23.80
6672;DHT22;3372;48.690;12.362;2023-05-10T02:03:16;16.20;23.80
6672;DHT22;3372;48.690;12.362;2023-05-10T02:05:43;16.20;23.00
6672;DHT22;3372;48.690;12.362;2023-05-10T02:08:11;16.20;23.20
6672;DHT22;3372;48.690;12.362;2023-05-10T02:10:37;16.20;23.00
6672;DHT22;3372;48.690;12.362;2023-05-10T02:13:05;16.20;22.70
6672;DHT22;3372;48.690;12.362;2023-05-10T02:15:33;16.20;23.30
6672;DHT22;3372;48.690;12.362;2023-05-10T02:18:00;16.20;23.50
6672;DHT22;3372;48.690;12.362;2023-05-10T02:20:27;16.20;23.90
6672;DHT22;3372;48.690;12.362;2023-05-10T02:22:54;16.20;23.90
6672;DHT22;3372;48.690;12.362;2023-05-10T02:25:22;16.10;24.70
6672;DHT22;3372;48.690;12.362;2023-05-10T02:27:49;16.10;23.90
6672;DHT22;3372;48.690;12.362;2023-05-10T02:30:15;16.10;24.40
6672;DHT22;3372;48.690;12.362;2023-05-10T02:32:42;16.10;24.50
6672;DHT22;3372;48.690;12.362;2023-05-10T02:35:09;16.20;25.20
6672;DHT22;3372;48.690;12.362;2023-05-10T02:37:37;16.20;26.30
6672;DHT22;3372;48.690;12.362;2023-05-10T02:40:05;16.20;26.30
6672;DHT22;3372;48.690;12.362;2023-05-10T02:42:35;16.10;27.00
6672;DHT22;3372;48.690;12.362;2023-05-10T02:45:03;16.10;27.10
6672;DHT22;3372;48.690;12.362;2023-05-10T02:47:30;16.20;27.20
6672;DHT22;3372;48.690;12.362;2023-05-10T02:49:56;16.20;27.30
6672;DHT22;3372;48.690;12.362;2023-05-10T02:52:27;16.20;28.10
6672;DHT22;3372;48.690;12.362;2023-05-10T02:55:02;16.10;28.40
6672;DHT22;3372;48.690;12.362;2023-05-10T02:57:33;16.10;28.90
6672;DHT22;3372;48.690;12.362;2023-05-10T03:00:00;16.00;29.40
6672;DHT22;3372;48.690;12.362;2023-05-10T03:02:26;16.10;28.80
6672;DHT22;3372;48.690;12.362;2023-05-10T03:04:52;16.10;30.00
6672;DHT22;3372;48.690;12.362;2023-05-10T03:07:18;16.10;29.20
6672;DHT22;3372;48.690;12.362;2023-05-10T03:09:47;16.10;29.40
6672;DHT22;3372;48.690;12.362;2023-05-10T03:12:47;16.10;29.90
6672;DHT22;3372;48.690;12.362;2023-05-10T03:18:12;16.00;31.00
6672;DHT22;3372;48.690;12.362;2023-05-10T03:20:47;16.00;31.10
6672;DHT22;3372;48.690;12.362;2023-05-10T03:23:21;16.00;32.40
6672;DHT22;3372;48.690;12.362;2023-05-10T03:25:48;16.10;32.30
6672;DHT22;3372;48.690;12.362;2023-05-10T03:28:17;16.00;32.20
6672;DHT22;3372;48.690;12.362;2023-05-10T03:30:44;16.00;32.40
6672;DHT22;3372;48.690;12.362;2023-05-10T03:33:10;16.00;32.40
6672;DHT22;3372;48.690;12.362;2023-05-10T03:35:36;16.00;34.70
6672;DHT22;3372;48.690;12.362;2023-05-10T03:38:02;15.90;34.10
6672;DHT22;3372;48.690;12.362;2023-05-10T03:40:28;15.80;36.30
6672;DHT22;3372;48.690;12.362;2023-05-10T03:42:56;15.90;36.80
6672;DHT22;3372;48.690;12.362;2023-05-10T03:45:22;15.90;36.20
6672;DHT22;3372;48.690;12.362;2023-05-10T03:47:48;15.90;37.60
6672;DHT22;3372;48.690;12.362;2023-05-10T03:50:13;15.80;39.80
6672;DHT22;3372;48.690;12.362;2023-05-10T03:52:39;15.80;38.30
6672;DHT22;3372;48.690;12.362;2023-05-10T03:55:05;15.80;39.10
6672;DHT22;3372;48.690;12.362;2023-05-10T03:57:31;15.80;40.70
6672;DHT22;3372;48.690;12.362;2023-05-10T03:59:57;15.70;39.30
6672;DHT22;3372;48.690;12.362;2023-05-10T04:02:23;15.60;40.90
6672;DHT22;3372;48.690;12.362;2023-05-10T04:04:48;15.60;41.60
6672;DHT22;3372;48.690;12.362;2023-05-10T04:07:14;15.60;40.30
6672;DHT22;3372;48.690;12.362;2023-05-10T04:09:40;15.60;43.40
6672;DHT22;3372;48.690;12.362;2023-05-10T04:12:06;15.60;43.10
6672;DHT22;3372;48.690;12.362;2023-05-10T04:14:31;15.70;42.00
6672;DHT22;3372;48.690;12.362;2023-05-10T04:16:57;15.70;41.80
6672;DHT22;3372;48.690;12.362;2023-05-10T04:19:23;15.70;43.40
6672;DHT22;3372;48.690;12.362;2023-05-10T04:21:49;15.80;41.30
6672;DHT22;3372;48.690;12.362;2023-05-10T04:24:14;15.70;41.10
6672;DHT22;3372;48.690;12.362;2023-05-10T04:26:40;15.80;41.80
6672;DHT22;3372;48.690;12.362;2023-05-10T04:29:06;15.80;43.50
6672;DHT22;3372;48.690;12.362;2023-05-10T04:31:31;15.80;43.50
6672;DHT22;3372;48.690;12.362;2023-05-10T04:33:57;15.90;42.50
6672;DHT22;3372;48.690;12.362;2023-05-10T04:36:22;15.90;43.30
6672;DHT22;3372;48.690;12.362;2023-05-10T04:38:48;15.90;44.60
6672;DHT22;3372;48.690;12.362;2023-05-10T04:41:13;15.90;44.60
6672;DHT22;3372;48.690;12.362;2023-05-10T04:43:42;15.90;44.10
6672;DHT22;3372;48.690;12.362;2023-05-10T04:46:07;16.00;44.40
6672;DHT22;3372;48.690;12.362;2023-05-10T04:48:33;16.00;46.30
6672;DHT22;3372;48.690;12.362;2023-05-10T04:50:59;16.00;46.70
6672;DHT22;3372;48.690;12.362;2023-05-10T04:53:24;16.00;47.00
6672;DHT22;3372;48.690;12.362;2023-05-10T04:55:50;16.00;48.30
6672;DHT22;3372;48.690;12.362;2023-05-10T04:58:16;16.00;48.90
6672;DHT22;3372;48.690;12.362;2023-05-10T05:00:42;16.10;49.00
6672;DHT22;3372;48.690;12.362;2023-05-10T05:03:08;16.10;47.50
6672;DHT22;3372;48.690;12.362;2023-05-10T05:05:33;16.10;47.20
6672;DHT22;3372;48.690;12.362;2023-05-10T05:07:59;16.10;50.40
6672;DHT22;3372;48.690;12.362;2023-05-10T05:10:24;16.10;50.00
6672;DHT22;3372;48.690;12.362;2023-05-10T05:12:50;16.10;51.90
6672;DHT22;3372;48.690;12.362;2023-05-10T05:15:16;16.10;51.00
6672;DHT22;3372;48.690;12.362;2023-05-10T05:17:42;16.10;51.80
6672;DHT22;3372;48.690;12.362;2023-05-10T05:20:09;16.10;52.90
6672;DHT22;3372;48.690;12.362;2023-05-10T05:22:36;16.00;53.60
6672;DHT22;3372;48.690;12.362;2023-05-10T05:25:02;16.10;54.20
6672;DHT22;3372;48.690;12.362;2023-05-10T05:27:29;16.20;52.60
6672;DHT22;3372;48.690;12.362;2023-05-10T05:29:55;16.20;53.60
6672;DHT22;3372;48.690;12.362;2023-05-10T05:32:21;16.20;53.40
6672;DHT22;3372;48.690;12.362;2023-05-10T05:34:47;16.20;53.00
6672;DHT22;3372;48.690;12.362;2023-05-10T05:37:14;16.20;53.20
6672;DHT22;3372;48.690;12.362;2023-05-10T05:39:40;16.30;53.40
6672;DHT22;3372;48.690;12.362;2023-05-10T05:42:06;16.30;53.40
6672;DHT22;3372;48.690;12.362;2023-05-10T05:44:31;16.40;53.60
6672;DHT22;3372;48.690;12.362;2023-05-10T05:46:57;16.30;57.20
6672;DHT22;3372;48.690;12.362;2023-05-10T05:49:22;16.40;55.10
6672;DHT22;3372;48.690;12.362;2023-05-10T05:51:49;16.30;59.40
6672;DHT22;3372;48.690;12.362;2023-05-10T05:54:16;16.30;60.00
6672;DHT22;3372;48.690;12.362;2023-05-10T05:56:41;16.40;59.50
6672;DHT22;3372;48.690;12.362;2023-05-10T05:59:07;16.30;58.90
6672;DHT22;3372;48.690;12.362;2023-05-10T06:01:33;16.30;59.10
6672;DHT22;3372;48.690;12.362;2023-05-10T06:03:59;16.30;61.20
6672;DHT22;3372;48.690;12.362;2023-05-10T06:06:24;16.30;62.00
6672;DHT22;3372;48.690;12.362;2023-05-10T06:08:50;16.30;61.20
6672;DHT22;3372;48.690;12.362;2023-05-10T06:11:15;16.30;62.20
6672;DHT22;3372;48.690;12.362;2023-05-10T06:13:41;16.00;65.00
6672;DHT22;3372;48.690;12.362;2023-05-10T06:16:07;16.10;65.90
6672;DHT22;3372;48.690;12.362;2023-05-10T06:18:33;16.10;65.90
6672;DHT22;3372;48.690;12.362;2023-05-10T06:20:59;16.00;66.60
6672;DHT22;3372;48.690;12.362;2023-05-10T06:23:25;16.10;66.20
6672;DHT22;3372;48.690;12.362;2023-05-10T06:25:51;16.10;65.40
6672;DHT22;3372;48.690;12.362;2023-05-10T06:28:17;16.10;66.00
6672;DHT22;3372;48.690;12.362;2023-05-10T06:30:42;16.20;64.90
6672;DHT22;3372;48.690;12.362;2023-05-10T06:33:08;16.20;65.90
6672;DHT22;3372;48.690;12.362;2023-05-10T06:35:34;16.10;68.50
6672;DHT22;3372;48.690;12.362;2023-05-10T06:38:00;15.60;77.30
6672;DHT22;3372;48.690;12.362;2023-05-10T06:40:25;15.80;76.10
6672;DHT22;3372;48.690;12.362;2023-05-10T06:42:51;16.00;76.40
6672;DHT22;3372;48.690;12.362;2023-05-10T06:45:17;16.20;74.80
6672;DHT22;3372;48.690;12.362;2023-05-10T06:47:42;16.30;73.40
6672;DHT22;3372;48.690;12.362;2023-05-10T06:50:09;16.00;78.60
6672;DHT22;3372;48.690;12.362;2023-05-10T06:52:37;16.20;76.50
6672;DHT22;3372;48.690;12.362;2023-05-10T06:55:04;16.10;75.80
6672;DHT22;3372;48.690;12.362;2023-05-10T06:57:30;16.00;75.20
6672;DHT22;3372;48.690;12.362;2023-05-10T06:59:56;16.00;76.10
6672;DHT22;3372;48.690;12.362;2023-05-10T07:02:22;16.00;75.50
6672;DHT22;3372;48.690;12.362;2023-05-10T07:04:48;16.10;76.10
6672;DHT22;3372;48.690;12.362;2023-05-10T07:07:14;16.00;76.20
6672;DHT22;3372;48.690;12.362;2023-05-10T07:09:40;16.00;76.40
6672;DHT22;3372;48.690;12.362;2023-05-10T07:12:06;15.90;77.10
6672;DHT22;3372;48.690;12.362;2023-05-10T07:14:31;15.90;76.70
6672;DHT22;3372;48.690;12.362;2023-05-10T07:16:57;15.50;78.20
6672;DHT22;3372;48.690;12.362;2023-05-10T07:19:23;15.50;77.70
6672;DHT22;3372;48.690;12.362;2023-05-10T07:21:49;15.30;80.80
6672;DHT22;3372;48.690;12.362;2023-05-10T07:24:16;15.50;80.40
6672;DHT22;3372;48.690;12.362;2023-05-10T07:26:41;15.40;81.00
6672;DHT22;3372;48.690;12.362;2023-05-10T07:29:07;15.30;82.90
6672;DHT22;3372;48.690;12.362;2023-05-10T07:31:32;15.40;81.80
6672;DHT22;3372;48.690;12.362;2023-05-10T07:33:58;15.30;83.90
6672;DHT22;3372;48.690;12.362;2023-05-10T07:36:24;15.40;86.70
6672;DHT22;3372;48.690;12.362;2023-05-10T07:38:50;15.40;86.10
6672;DHT22;3372;48.690;12.362;2023-05-10T07:41:15;15.50;86.00
6672;DHT22;3372;48.690;12.362;2023-05-10T07:43:41;15.60;83.10
6672;DHT22;3372;48.690;12.362;2023-05-10T07:46:06;15.70;82.10
6672;DHT22;3372;48.690;12.362;2023-05-10T07:48:32;15.80;80.60
6672;DHT22;3372;48.690;12.362;2023-05-10T07:50:58;15.70;84.30
6672;DHT22;3372;48.690;12.362;2023-05-10T07:53:25;15.70;81.30
6672;DHT22;3372;48.690;12.362;2023-05-10T07:55:52;15.80;82.90
6672;DHT22;3372;48.690;12.362;2023-05-10T07:58:19;15.70;81.90
6672;DHT22;3372;48.690;12.362;2023-05-10T08:00:45;15.80;83.10
6672;DHT22;3372;48.690;12.362;2023-05-10T08:03:11;15.80;82.30
6672;DHT22;3372;48.690;12.362;2023-05-10T08:05:37;15.80;84.10
6672;DHT22;3372;48.690;12.362;2023-05-10T08:08:02;15.80;81.70
6672;DHT22;3372;48.690;12.362;2023-05-10T08:10:28;15.70;83.40
6672;DHT22;3372;48.690;12.362;2023-05-10T08:12:53;15.70;83.50
6672;DHT22;3372;48.690;12.362;2023-05-10T08:15:19;16.00;83.70
6672;DHT22;3372;48.690;12.362;2023-05-10T08:17:44;15.70;84.80
6672;DHT22;3372;48.690;12.362;2023-05-10T08:20:10;15.90;84.90
6672;DHT22;3372;48.690;12.362;2023-05-10T08:22:38;15.80;85.20
6672;DHT22;3372;48.690;12.362;2023-05-10T08:25:03;15.90;86.30
6672;DHT22;3372;48.690;12.362;2023-05-10T08:27:29;16.00;83.30
6672;DHT22;3372;48.690;12.362;2023-05-10T08:29:55;16.20;82.90
6672;DHT22;3372;48.690;12.362;2023-05-10T08:32:20;16.30;81.50
6672;DHT22;3372;48.690;12.362;2023-05-10T08:34:46;16.30;80.70
6672;DHT22;3372;48.690;12.362;2023-05-10T08:37:12;16.30;82.00
6672;DHT22;3372;48.690;12.362;2023-05-10T08:39:38;16.20;82.10
6672;DHT22;3372;48.690;12.362;2023-05-10T08:42:04;16.50;80.00
6672;DHT22;3372;48.690;12.362;2023-05-10T08:44:35;16.70;80.30
6672;DHT22;3372;48.690;12.362;2023-05-10T08:47:04;16.70;80.00
6672;DHT22;3372;48.690;12.362;2023-05-10T08:49:32;16.50;80.90
6672;DHT22;3372;48.690;12.362;2023-05-10T08:52:01;16.30;81.50
6672;DHT22;3372;48.690;12.362;2023-05-10T08:54:27;16.50;80.10
6672;DHT22;3372;48.690;12.362;2023-05-10T08:56:53;16.60;80.40
6672;DHT22;3372;48.690;12.362;2023-05-10T08:59:18;16.70;78.40
6672;DHT22;3372;48.690;12.362;2023-05-10T09:01:54;16.70;77.70
6672;DHT22;3372;48.690;12.362;2023-05-10T09:04:31;16.70;78.50
6672;DHT22;3372;48.690;12.362;2023-05-10T09:06:57;16.80;77.10
6672;DHT22;3372;48.690;12.362;2023-05-10T09:09:24;16.70;78.80
6672;DHT22;3372;48.690;12.362;2023-05-10T09:11:51;16.80;77.50
6672;DHT22;3372;48.690;12.362;2023-05-10T09:14:18;16.90;75.80
6672;DHT22;3372;48.690;12.362;2023-05-10T09:16:45;17.00;76.60
6672;DHT22;3372;48.690;12.362;2023-05-10T09:19:11;17.30;76.90
6672;DHT22;3372;48.690;12.362;2023-05-10T09:21:37;17.10;75.90
6672;DHT22;3372;48.690;12.362;2023-05-10T09:24:07;17.20;75.10
6672;DHT22;3372;48.690;12.362;2023-05-10T09:26:34;17.30;74.40
6672;DHT22;3372;48.690;12.362;2023-05-10T09:29:01;17.50;72.50
6672;DHT22;3372;48.690;12.362;2023-05-10T09:34:09;17.50;68.80
6672;DHT22;3372;48.690;12.362;2023-05-10T09:36:34;17.60;65.90
6672;DHT22;3372;48.690;12.362;2023-05-10T09:39:00;17.80;64.60
6672;DHT22;3372;48.690;12.362;2023-05-10T09:41:25;17.50;62.10
6672;DHT22;3372;48.690;12.362;2023-05-10T09:43:57;17.80;63.10
6672;DHT22;3372;48.690;12.362;2023-05-10T09:46:35;17.60;62.10
6672;DHT22;3372;48.690;12.362;2023-05-10T09:49:05;17.50;65.00
6672;DHT22;3372;48.690;12.362;2023-05-10T09:51:31;17.80;66.30
6672;DHT22;3372;48.690;12.362;2023-05-10T09:54:16;17.80;58.20
6672;DHT22;3372;48.690;12.362;2023-05-10T09:56:42;17.90;56.60
6672;DHT22;3372;48.690;12.362;2023-05-10T09:59:11;18.30;55.40
6672;DHT22;3372;48.690;12.362;2023-05-10T10:01:37;18.20;55.10
6672;DHT22;3372;48.690;12.362;2023-05-10T10:04:08;17.80;59.10
6672;DHT22;3372;48.690;12.362;2023-05-10T10:06:40;18.10;56.90
6672;DHT22;3372;48.690;12.362;2023-05-10T10:09:06;18.60;56.70
6672;DHT22;3372;48.690;12.362;2023-05-10T10:11:34;18.80;52.20
6672;DHT22;3372;48.690;12.362;2023-05-10T10:14:00;18.80;50.40
6672;DHT22;3372;48.690;12.362;2023-05-10T10:16:29;18.20;46.40
6672;DHT22;3372;48.690;12.362;2023-05-10T10:18:55;17.90;42.00
6672;DHT22;3372;48.690;12.362;2023-05-10T10:21:22;17.90;44.60
6672;DHT22;3372;48.690;12.362;2023-05-10T10:23:47;17.40;41.20
6672;DHT22;3372;48.690;12.362;2023-05-10T10:26:14;17.60;45.10
6672;DHT22;3372;48.690;12.362;2023-05-10T10:31:37;17.10;46.80
6672;DHT22;3372;48.690;12.362;2023-05-10T10:34:21;17.00;49.50
6672;DHT22;3372;48.690;12.362;2023-05-10T10:36:49;17.10;49.00
6672;DHT22;3372;48.690;12.362;2023-05-10T10:39:15;17.40;49.10
6672;DHT22;3372;48.690;12.362;2023-05-10T10:41:55;17.50;48.80
6672;DHT22;3372;48.690;12.362;2023-05-10T10:52:26;17.70;45.30
6672;DHT22;3372;48.690;12.362;2023-05-10T10:55:05;17.90;47.40
6672;DHT22;3372;48.690;12.362;2023-05-10T11:05:45;18.00;46.50
6672;DHT22;3372;48.690;12.362;2023-05-10T11:13:30;18.00;47.80
6672;DHT22;3372;48.690;12.362;2023-05-10T11:15:57;18.00;49.50
6672;DHT22;3372;48.690;12.362;2023-05-10T11:18:31;17.90;49.20
6672;DHT22;3372;48.690;12.362;2023-05-10T11:21:00;17.80;50.20
6672;DHT22;3372;48.690;12.362;2023-05-10T11:23:54;17.40;51.80
6672;DHT22;3372;48.690;12.362;2023-05-10T11:26:23;17.40;53.60
6672;DHT22;3372;48.690;12.362;2023-05-10T11:28:52;17.40;55.40
6672;DHT22;3372;48.690;12.362;2023-05-10T11:31:20;17.90;56.60
6672;DHT22;3372;48.690;12.362;2023-05-10T11:33:47;18.10;53.50
6672;DHT22;3372;48.690;12.362;2023-05-10T11:36:33;18.00;56.70
6672;DHT22;3372;48.690;12.362;2023-05-10T11:38:59;18.20;54.20
6672;DHT22;3372;48.690;12.362;2023-05-10T11:41:27;18.50;54.10
6672;DHT22;3372;48.690;12.362;2023-05-10T11:43:54;18.70;51.60
6672;DHT22;3372;48.690;12.362;2023-05-10T11:46:22;18.80;49.10
6672;DHT22;3372;48.690;12.362;2023-05-10T11:48:59;18.80;47.80
6672;DHT22;3372;48.690;12.362;2023-05-10T11:51:27;18.50;46.80
6672;DHT22;3372;48.690;12.362;2023-05-10T11:53:54;18.80;49.50
6672;DHT22;3372;48.690;12.362;2023-05-10T11:56:20;18.90;46.20
6672;DHT22;3372;48.690;12.362;2023-05-10T11:58:56;18.90;44.90
6672;DHT22;3372;48.690;12.362;2023-05-10T12:01:23;18.90;43.80
6672;DHT22;3372;48.690;12.362;2023-05-10T12:03:50;18.90;45.50
6672;DHT22;3372;48.690;12.362;2023-05-10T12:06:20;18.70;44.60
6672;DHT22;3372;48.690;12.362;2023-05-10T12:08:47;18.70;46.10
6672;DHT22;3372;48.690;12.362;2023-05-10T12:11:14;18.60;48.20
6672;DHT22;3372;48.690;12.362;2023-05-10T12:13:44;18.10;47.30
6672;DHT22;3372;48.690;12.362;2023-05-10T12:16:17;18.20;47.70
6672;DHT22;3372;48.690;12.362;2023-05-10T12:18:44;18.20;48.40
6672;DHT22;3372;48.690;12.362;2023-05-10T12:21:11;18.20;50.00
6672;DHT22;3372;48.690;12.362;2023-05-10T12:23:37;17.80;51.00
6672;DHT22;3372;48.690;12.362;2023-05-10T12:26:04;18.00;53.90
6672;DHT22;3372;48.690;12.362;2023-05-10T12:28:31;18.10;52.10
6672;DHT22;3372;48.690;12.362;2023-05-10T12:30:58;18.10;51.50
6672;DHT22;3372;48.690;12.362;2023-05-10T12:33:24;18.30;51.40
6672;DHT22;3372;48.690;12.362;2023-05-10T12:35:53;18.40;50.80
6672;DHT22;3372;48.690;12.362;2023-05-10T12:38:26;18.30;50.80
6672;DHT22;3372;48.690;12.362;2023-05-10T12:40:54;18.20;50.30
6672;DHT22;3372;48.690;12.362;2023-05-10T12:43:19;18.10;52.90
6672;DHT22;3372;48.690;12.362;2023-05-10T12:45:45;18.00;47.80
6672;DHT22;3372;48.690;12.362;2023-05-10T12:48:13;17.80;49.00
6672;DHT22;3372;48.690;12.362;2023-05-10T12:50:39;18.10;48.50
6672;DHT22;3372;48.690;12.362;2023-05-10T12:53:04;18.30;47.20
6672;DHT22;3372;48.690;12.362;2023-05-10T12:55:30;18.40;47.30
6672;DHT22;3372;48.690;12.362;2023-05-10T12:57:56;18.60;45.70
6672;DHT22;3372;48.690;12.362;2023-05-10T13:00:21;18.60;44.60
6672;DHT22;3372;48.690;12.362;2023-05-10T13:02:47;18.50;44.00
6672;DHT22;3372;48.690;12.362;2023-05-10T13:05:13;18.50;44.80
6672;DHT22;3372;48.690;12.362;2023-05-10T13:07:38;18.60;44.50
6672;DHT22;3372;48.690;12.362;2023-05-10T13:10:05;18.70;44.00
6672;DHT22;3372;48.690;12.362;2023-05-10T13:12:34;18.70;44.20
6672;DHT22;3372;48.690;12.362;2023-05-10T13:15:00;18.50;43.80
6672;DHT22;3372;48.690;12.362;2023-05-10T13:17:25;18.60;43.60
6672;DHT22;3372;48.690;12.362;2023-05-10T13:19:51;18.40;44.50
6672;DHT22;3372;48.690;12.362;2023-05-10T13:22:17;18.60;43.20
6672;DHT22;3372;48.690;12.362;2023-05-10T13:24:42;18.70;42.10
6672;DHT22;3372;48.690;12.362;2023-05-10T13:27:08;18.70;38.40
6672;DHT22;3372;48.690;12.362;2023-05-10T13:29:34;18.80;39.00
6672;DHT22;3372;48.690;12.362;2023-05-10T13:31:59;18.70;40.10
6672;DHT22;3372;48.690;12.362;2023-05-10T13:34:26;18.80;39.30
6672;DHT22;3372;48.690;12.362;2023-05-10T13:36:52;18.80;39.00
6672;DHT22;3372;48.690;12.362;2023-05-10T13:39:20;18.80;36.30
6672;DHT22;3372;48.690;12.362;2023-05-10T13:41:46;18.70;37.60
6672;DHT22;3372;48.690;12.362;2023-05-10T13:44:15;18.50;36.70
6672;DHT22;3372;48.690;12.362;2023-05-10T13:46:41;18.70;38.90
6672;DHT22;3372;48.690;12.362;2023-05-10T13:49:09;18.70;40.10
6672;DHT22;3372;48.690;12.362;2023-05-10T13:51:34;18.90;39.90
6672;DHT22;3372;48.690;12.362;2023-05-10T13:54:01;18.80;36.50
6672;DHT22;3372;48.690;12.362;2023-05-10T13:56:27;18.90;37.60
6672;DHT22;3372;48.690;12.362;2023-05-10T13:58:53;18.90;39.50
6672;DHT22;3372;48.690;12.362;2023-05-10T14:01:19;18.90;37.60
6672;DHT22;3372;48.690;12.362;2023-05-10T14:03:44;18.80;36.00
6672;DHT22;3372;48.690;12.362;2023-05-10T14:06:10;18.90;36.90
6672;DHT22;3372;48.690;12.362;2023-05-10T14:08:36;18.90;36.30
6672;DHT22;3372;48.690;12.362;2023-05-10T14:11:02;18.80;36.90
6672;DHT22;3372;48.690;12.362;2023-05-10T14:13:27;18.80;38.60
6672;DHT22;3372;48.690;12.362;2023-05-10T14:15:54;18.80;38.70
6672;DHT22;3372;48.690;12.362;2023-05-10T14:18:20;18.60;40.10
6672;DHT22;3372;48.690;12.362;2023-05-10T14:20:45;18.60;39.60
6672;DHT22;3372;48.690;12.362;2023-05-10T14:23:11;18.70;41.40
6672;DHT22;3372;48.690;12.362;2023-05-10T14:25:40;18.80;40.80
6672;DHT22;3372;48.690;12.362;2023-05-10T14:28:06;18.70;41.40
6672;DHT22;3372;48.690;12.362;2023-05-10T14:30:32;18.70;40.50
6672;DHT22;3372;48.690;12.362;2023-05-10T14:33:02;18.80;40.00
6672;DHT22;3372;48.690;12.362;2023-05-10T14:35:28;18.80;40.40
6672;DHT22;3372;48.690;12.362;2023-05-10T14:37:56;18.90;39.70
6672;DHT22;3372;48.690;12.362;2023-05-10T14:40:22;18.90;39.70
6672;DHT22;3372;48.690;12.362;2023-05-10T14:42:49;18.60;39.50
6672;DHT22;3372;48.690;12.362;2023-05-10T14:45:15;18.50;40.40
6672;DHT22;3372;48.690;12.362;2023-05-10T14:47:41;18.60;41.40
6672;DHT22;3372;48.690;12.362;2023-05-10T14:50:07;18.00;39.80
6672;DHT22;3372;48.690;12.362;2023-05-10T14:52:36;18.20;40.00
6672;DHT22;3372;48.690;12.362;2023-05-10T14:55:01;18.20;40.80
6672;DHT22;3372;48.690;12.362;2023-05-10T14:57:30;18.20;40.40
6672;DHT22;3372;48.690;12.362;2023-05-10T15:00:05;18.20;40.00
6672;DHT22;3372;48.690;12.362;2023-05-10T15:02:31;17.80;40.70
6672;DHT22;3372;48.690;12.362;2023-05-10T15:04:58;17.70;41.00
6672;DHT22;3372;48.690;12.362;2023-05-10T15:07:24;17.60;42.30
6672;DHT22;3372;48.690;12.362;2023-05-10T15:09:52;17.50;43.80
6672;DHT22;3372;48.690;12.362;2023-05-10T15:12:19;17.40;40.10
6672;DHT22;3372;48.690;12.362;2023-05-10T15:14:45;17.20;41.40
6672;DHT22;3372;48.690;12.362;2023-05-10T15:17:11;17.10;42.60
6672;DHT22;3372;48.690;12.362;2023-05-10T15:19:37;17.20;43.80
6672;DHT22;3372;48.690;12.362;2023-05-10T15:22:04;17.20;45.30
6672;DHT22;3372;48.690;12.362;2023-05-10T15:24:31;17.20;45.20
6672;DHT22;3372;48.690;12.362;2023-05-10T15:26:57;17.10;44.70
6672;DHT22;3372;48.690;12.362;2023-05-10T15:29:22;17.10;45.60
6672;DHT22;3372;48.690;12.362;2023-05-10T15:31:51;17.10;46.00
6672;DHT22;3372;48.690;12.362;2023-05-10T15:34:17;17.20;45.90
6672;DHT22;3372;48.690;12.362;2023-05-10T15:36:43;17.10;47.00
6672;DHT22;3372;48.690;12.362;2023-05-10T15:39:10;17.20;45.90
6672;DHT22;3372;48.690;12.362;2023-05-10T15:41:36;17.20;46.10
6672;DHT22;3372;48.690;12.362;2023-05-10T15:44:01;17.20;47.10
6672;DHT22;3372;48.690;12.362;2023-05-10T15:46:28;17.20;47.10
6672;DHT22;3372;48.690;12.362;2023-05-10T15:48:54;17.20;47.30
6672;DHT22;3372;48.690;12.362;2023-05-10T15:51:19;17.20;47.90
6672;DHT22;3372;48.690;12.362;2023-05-10T15:53:45;17.20;47.00
6672;DHT22;3372;48.690;12.362;2023-05-10T15:56:11;17.10;46.50
6672;DHT22;3372;48.690;12.362;2023-05-10T15:58:37;17.10;47.50
6672;DHT22;3372;48.690;12.362;2023-05-10T16:01:03;17.10;47.90
6672;DHT22;3372;48.690;12.362;2023-05-10T16:03:30;17.10;46.70
6672;DHT22;3372;48.690;12.362;2023-05-10T16:05:56;17.00;47.10
6672;DHT22;3372;48.690;12.362;2023-05-10T16:08:22;17.00;47.50
6672;DHT22;3372;48.690;12.362;2023-05-10T16:10:49;17.00;46.40
6672;DHT22;3372;48.690;12.362;2023-05-10T16:13:15;17.00;46.50
6672;DHT22;3372;48.690;12.362;2023-05-10T16:15:41;16.80;47.10
6672;DHT22;3372;48.690;12.362;2023-05-10T16:18:07;16.80;47.30
6672;DHT22;3372;48.690;12.362;2023-05-10T16:20:33;16.80;47.40
6672;DHT22;3372;48.690;12.362;2023-05-10T16:23:02;16.80;48.30